sensor_id;sensor_type;location;lat;lon;timestamp;temperature;humidity
22813;DHT22;11573;51.334;3.244;2023-04-06T00:01:11;7.20;99.90
22813;DHT22;11573;51.334;3.244;2023-04-06T00:03:38;7.20;99.90
22813;DHT22;11573;51.334;3.244;2023-04-06T00:06:05;7.10;99.90
22813;DHT22;11573;51.334;3.244;2023-04-06T00:08:32;7.10;99.90
22813;DHT22;11573;51.334;3.244;2023-04-06T00:10:59;7.10;99.90
22813;DHT22;11573;51.334;3.244;2023-04-06T00:13:27;7.10;99.90
22813;DHT22;11573;51.334;3.244;2023-04-06T00:15:54;7.10;99.90
22813;DHT22;11573;51.334;3.244;2023-04-06T00:18:21;7.10;99.90
22813;DHT22;11573;51.334;3.244;2023-04-06T00:20:48;7.10;99.90
22813;DHT22;11573;51.334;3.244;2023-04-06T00:23:17;7.10;99.90
22813;DHT22;11573;51.334;3.244;2023-04-06T00:25:44;7.10;99.90
22813;DHT22;11573;51.334;3.244;2023-04-06T00:28:11;7.10;99.90
22813;DHT22;11573;51.334;3.244;2023-04-06T00:30:39;7.10;99.90
22813;DHT22;11573;51.334;3.244;2023-04-06T00:33:06;7.10;99.90
22813;DHT22;11573;51.334;3.244;2023-04-06T00:35:34;7.10;99.90
22813;DHT22;11573;51.334;3.244;2023-04-06T00:38:01;7.10;99.90
22813;DHT22;11573;51.334;3.244;2023-04-06T00:40:28;7.20;99.90
22813;DHT22;11573;51.334;3.244;2023-04-06T00:42:55;7.10;99.90
22813;DHT22;11573;51.334;3.244;2023-04-06T00:45:22;7.10;99.90
22813;DHT22;11573;51.334;3.244;2023-04-06T00:47:49;7.10;99.90
22813;DHT22;11573;51.334;3.244;2023-04-06T00:50:16;7.10;99.90
22813;DHT22;11573;51.334;3.244;2023-04-06T00:52:44;7.10;99.90
22813;DHT22;11573;51.334;3.244;2023-04-06T00:55:11;7.10;99.90
22813;DHT22;11573;51.334;3.244;2023-04-06T00:57:42;7.20;99.90
22813;DHT22;11573;51.334;3.244;2023-04-06T01:00:10;7.40;99.90
22813;DHT22;11573;51.334;3.244;2023-04-06T01:02:39;7.70;99.90
22813;DHT22;11573;51.334;3.244;2023-04-06T01:05:08;7.70;99.90
22813;DHT22;11573;51.334;3.244;2023-04-06T01:07:46;7.80;99.90
22813;DHT22;11573;51.334;3.244;2023-04-06T01:10:25;7.70;99.90
22813;DHT22;11573;51.334;3.244;2023-04-06T01:12:59;7.80;99.90
22813;DHT22;11573;51.334;3.244;2023-04-06T01:15:58;7.80;99.90
22813;DHT22;11573;51.334;3.244;2023-04-06T01:18:32;7.80;99.90
22813;DHT22;11573;51.334;3.244;2023-04-06T01:21:16;7.80;99.90
22813;DHT22;11573;51.334;3.244;2023-04-06T01:24:12;7.80;99.90
22813;DHT22;11573;51.334;3.244;2023-04-06T01:27:17;7.70;99.90
22813;DHT22;11573;51.334;3.244;2023-04-06T01:30:07;7.80;99.90
22813;DHT22;11573;51.334;3.244;2023-04-06T01:33:01;7.80;99.90
22813;DHT22;11573;51.334;3.244;2023-04-06T01:35:55;7.70;99.90
22813;DHT22;11573;51.334;3.244;2023-04-06T01:38:23;7.70;99.90
22813;DHT22;11573;51.334;3.244;2023-04-06T01:40:49;7.70;99.90
22813;DHT22;11573;51.334;3.244;2023-04-06T01:43:19;7.80;99.90
22813;DHT22;11573;51.334;3.244;2023-04-06T01:46:01;7.80;99.90
22813;DHT22;11573;51.334;3.244;2023-04-06T01:48:33;7.70;99.90
22813;DHT22;11573;51.334;3.244;2023-04-06T01:51:07;7.70;99.90
22813;DHT22;11573;51.334;3.244;2023-04-06T01:53:42;7.70;99.90
22813;DHT22;11573;51.334;3.244;2023-04-06T01:56:09;7.70;99.90
22813;DHT22;11573;51.334;3.244;2023-04-06T01:58:41;7.60;99.90
22813;DHT22;11573;51.334;3.244;2023-04-06T02:01:11;7.70;99.90
22813;DHT22;11573;51.334;3.244;2023-04-06T02:03:49;7.70;99.90
22813;DHT22;11573;51.334;3.244;2023-04-06T02:06:17;7.70;99.90
22813;DHT22;11573;51.334;3.244;2023-04-06T02:08:44;7.70;99.90
22813;DHT22;11573;51.334;3.244;2023-04-06T02:11:12;7.70;99.90
22813;DHT22;11573;51.334;3.244;2023-04-06T02:13:44;7.70;99.90
22813;DHT22;11573;51.334;3.244;2023-04-06T02:16:11;7.70;99.90
22813;DHT22;11573;51.334;3.244;2023-04-06T02:18:38;7.80;99.90
22813;DHT22;11573;51.334;3.244;2023-04-06T02:21:05;7.80;99.90
22813;DHT22;11573;51.334;3.244;2023-04-06T02:23:32;7.70;99.90
22813;DHT22;11573;51.334;3.244;2023-04-06T02:25:59;7.70;99.90
22813;DHT22;11573;51.334;3.244;2023-04-06T02:28:26;7.70;99.90
22813;DHT22;11573;51.334;3.244;2023-04-06T02:30:53;7.70;99.90
22813;DHT22;11573;51.334;3.244;2023-04-06T02:33:24;7.70;99.90
22813;DHT22;11573;51.334;3.244;2023-04-06T02:35:51;7.70;99.90
22813;DHT22;11573;51.334;3.244;2023-04-06T02:38:19;7.70;99.90
22813;DHT22;11573;51.334;3.244;2023-04-06T02:40:46;7.70;99.90
22813;DHT22;11573;51.334;3.244;2023-04-06T02:43:20;7.60;99.90
22813;DHT22;11573;51.334;3.244;2023-04-06T02:45:50;7.60;99.90
22813;DHT22;11573;51.334;3.244;2023-04-06T02:48:20;7.70;99.90
22813;DHT22;11573;51.334;3.244;2023-04-06T02:50:47;7.70;99.90
22813;DHT22;11573;51.334;3.244;2023-04-06T02:53:14;7.70;99.90
22813;DHT22;11573;51.334;3.244;2023-04-06T02:55:41;7.70;99.90
22813;DHT22;11573;51.334;3.244;2023-04-06T02:58:08;7.70;99.90
22813;DHT22;11573;51.334;3.244;2023-04-06T03:00:43;7.70;99.90
22813;DHT22;11573;51.334;3.244;2023-04-06T03:03:10;7.80;99.90
22813;DHT22;11573;51.334;3.244;2023-04-06T03:05:39;7.90;99.90
22813;DHT22;11573;51.334;3.244;2023-04-06T03:08:07;7.80;99.90
22813;DHT22;11573;51.334;3.244;2023-04-06T03:10:43;7.80;99.90
22813;DHT22;11573;51.334;3.244;2023-04-06T03:13:10;7.90;99.90
22813;DHT22;11573;51.334;3.244;2023-04-06T03:16:05;7.90;99.90
22813;DHT22;11573;51.334;3.244;2023-04-06T03:18:32;7.90;99.90
22813;DHT22;11573;51.334;3.244;2023-04-06T03:20:59;7.90;99.90
22813;DHT22;11573;51.334;3.244;2023-04-06T03:23:35;7.80;99.90
22813;DHT22;11573;51.334;3.244;2023-04-06T03:26:03;7.90;99.90
22813;DHT22;11573;51.334;3.244;2023-04-06T03:28:30;7.90;99.90
22813;DHT22;11573;51.334;3.244;2023-04-06T03:31:02;7.90;99.90
22813;DHT22;11573;51.334;3.244;2023-04-06T03:33:44;7.90;99.90
22813;DHT22;11573;51.334;3.244;2023-04-06T03:36:21;7.90;99.90
22813;DHT22;11573;51.334;3.244;2023-04-06T03:38:48;8.00;99.90
22813;DHT22;11573;51.334;3.244;2023-04-06T03:41:15;8.00;99.90
22813;DHT22;11573;51.334;3.244;2023-04-06T03:43:49;8.00;99.90
22813;DHT22;11573;51.334;3.244;2023-04-06T03:46:17;8.00;99.90
22813;DHT22;11573;51.334;3.244;2023-04-06T03:48:47;8.00;99.90
22813;DHT22;11573;51.334;3.244;2023-04-06T03:51:16;8.00;99.90
22813;DHT22;11573;51.334;3.244;2023-04-06T03:53:44;8.10;99.90
22813;DHT22;11573;51.334;3.244;2023-04-06T03:56:10;8.10;99.90
22813;DHT22;11573;51.334;3.244;2023-04-06T03:58:37;8.10;99.90
22813;DHT22;11573;51.334;3.244;2023-04-06T04:01:04;8.20;99.90
22813;DHT22;11573;51.334;3.244;2023-04-06T04:03:33;8.10;99.90
22813;DHT22;11573;51.334;3.244;2023-04-06T04:06:01;8.20;99.90
22813;DHT22;11573;51.334;3.244;2023-04-06T04:08:28;8.10;99.90
22813;DHT22;11573;51.334;3.244;2023-04-06T04:10:55;8.10;99.90
22813;DHT22;11573;51.334;3.244;2023-04-06T04:13:22;8.10;99.90
22813;DHT22;11573;51.334;3.244;2023-04-06T04:15:50;8.10;99.90
22813;DHT22;11573;51.334;3.244;2023-04-06T04:18:17;8.10;99.90
22813;DHT22;11573;51.334;3.244;2023-04-06T04:20:44;8.10;99.90
22813;DHT22;11573;51.334;3.244;2023-04-06T04:23:12;8.10;99.90
22813;DHT22;11573;51.334;3.244;2023-04-06T04:25:40;8.10;99.90
22813;DHT22;11573;51.334;3.244;2023-04-06T04:28:07;8.10;99.90
22813;DHT22;11573;51.334;3.244;2023-04-06T04:30:35;8.00;99.90
22813;DHT22;11573;51.334;3.244;2023-04-06T04:33:08;8.00;99.90
22813;DHT22;11573;51.334;3.244;2023-04-06T04:35:35;8.00;99.90
22813;DHT22;11573;51.334;3.244;2023-04-06T04:38:02;8.00;99.90
22813;DHT22;11573;51.334;3.244;2023-04-06T04:40:31;8.00;99.90
22813;DHT22;11573;51.334;3.244;2023-04-06T04:43:07;8.00;99.90
22813;DHT22;11573;51.334;3.244;2023-04-06T04:45:34;8.00;99.90
22813;DHT22;11573;51.334;3.244;2023-04-06T04:48:14;8.00;99.90
22813;DHT22;11573;51.334;3.244;2023-04-06T04:51:07;8.00;99.90
22813;DHT22;11573;51.334;3.244;2023-04-06T04:53:57;8.00;99.90
22813;DHT22;11573;51.334;3.244;2023-04-06T04:56:28;7.90;99.90
22813;DHT22;11573;51.334;3.244;2023-04-06T04:59:05;7.90;99.90
22813;DHT22;11573;51.334;3.244;2023-04-06T05:01:36;7.90;99.90
22813;DHT22;11573;51.334;3.244;2023-04-06T05:04:22;7.80;99.90
22813;DHT22;11573;51.334;3.244;2023-04-06T05:07:06;7.80;99.90
22813;DHT22;11573;51.334;3.244;2023-04-06T05:09:35;7.90;99.90
22813;DHT22;11573;51.334;3.244;2023-04-06T05:12:02;7.80;99.90
22813;DHT22;11573;51.334;3.244;2023-04-06T05:14:34;7.90;99.90
22813;DHT22;11573;51.334;3.244;2023-04-06T05:17:05;7.80;99.90
22813;DHT22;11573;51.334;3.244;2023-04-06T05:19:32;7.80;99.90
22813;DHT22;11573;51.334;3.244;2023-04-06T05:21:59;7.80;99.90
22813;DHT22;11573;51.334;3.244;2023-04-06T05:24:27;7.80;99.90
22813;DHT22;11573;51.334;3.244;2023-04-06T05:26:54;7.80;99.90
22813;DHT22;11573;51.334;3.244;2023-04-06T05:29:23;7.70;99.90
22813;DHT22;11573;51.334;3.244;2023-04-06T05:31:51;7.80;99.90
22813;DHT22;11573;51.334;3.244;2023-04-06T05:34:18;7.80;99.90
22813;DHT22;11573;51.334;3.244;2023-04-06T05:36:47;7.80;99.90
22813;DHT22;11573;51.334;3.244;2023-04-06T05:39:18;7.80;99.90
22813;DHT22;11573;51.334;3.244;2023-04-06T05:41:49;7.80;99.90
22813;DHT22;11573;51.334;3.244;2023-04-06T05:44:24;7.90;99.90
22813;DHT22;11573;51.334;3.244;2023-04-06T05:47:01;7.90;99.90
22813;DHT22;11573;51.334;3.244;2023-04-06T05:49:28;7.90;99.90
22813;DHT22;11573;51.334;3.244;2023-04-06T05:51:55;7.90;99.90
22813;DHT22;11573;51.334;3.244;2023-04-06T05:54:23;7.90;99.90
22813;DHT22;11573;51.334;3.244;2023-04-06T05:56:53;7.90;99.90
22813;DHT22;11573;51.334;3.244;2023-04-06T05:59:20;7.90;99.90
22813;DHT22;11573;51.334;3.244;2023-04-06T06:01:47;8.00;99.90
22813;DHT22;11573;51.334;3.244;2023-04-06T06:04:15;7.90;99.90
22813;DHT22;11573;51.334;3.244;2023-04-06T06:06:43;7.90;99.90
22813;DHT22;11573;51.334;3.244;2023-04-06T06:09:19;7.90;99.90
22813;DHT22;11573;51.334;3.244;2023-04-06T06:11:56;8.00;99.90
22813;DHT22;11573;51.334;3.244;2023-04-06T06:14:26;8.00;99.90
22813;DHT22;11573;51.334;3.244;2023-04-06T06:16:55;8.00;99.90
22813;DHT22;11573;51.334;3.244;2023-04-06T06:19:23;8.00;99.90
22813;DHT22;11573;51.334;3.244;2023-04-06T06:21:53;8.10;99.90
22813;DHT22;11573;51.334;3.244;2023-04-06T06:24:21;8.20;99.90
22813;DHT22;11573;51.334;3.244;2023-04-06T06:26:48;8.10;99.90
22813;DHT22;11573;51.334;3.244;2023-04-06T06:29:17;8.10;99.90
22813;DHT22;11573;51.334;3.244;2023-04-06T06:31:44;8.00;99.90
22813;DHT22;11573;51.334;3.244;2023-04-06T06:34:11;8.10;99.90
22813;DHT22;11573;51.334;3.244;2023-04-06T06:36:41;8.10;99.90
22813;DHT22;11573;51.334;3.244;2023-04-06T06:39:11;8.10;99.90
22813;DHT22;11573;51.334;3.244;2023-04-06T06:41:38;8.10;99.90
22813;DHT22;11573;51.334;3.244;2023-04-06T06:44:06;8.10;99.90
22813;DHT22;11573;51.334;3.244;2023-04-06T06:46:34;8.10;99.90
22813;DHT22;11573;51.334;3.244;2023-04-06T06:49:01;8.10;99.90
22813;DHT22;11573;51.334;3.244;2023-04-06T06:51:29;8.10;99.90
22813;DHT22;11573;51.334;3.244;2023-04-06T06:53:57;8.10;99.90
22813;DHT22;11573;51.334;3.244;2023-04-06T06:56:24;8.10;99.90
22813;DHT22;11573;51.334;3.244;2023-04-06T06:58:53;8.20;99.90
22813;DHT22;11573;51.334;3.244;2023-04-06T07:01:21;8.20;99.90
22813;DHT22;11573;51.334;3.244;2023-04-06T07:03:48;8.20;99.90
22813;DHT22;11573;51.334;3.244;2023-04-06T07:06:15;8.20;99.90
22813;DHT22;11573;51.334;3.244;2023-04-06T07:08:42;8.20;99.90
22813;DHT22;11573;51.334;3.244;2023-04-06T07:11:09;8.30;99.90
22813;DHT22;11573;51.334;3.244;2023-04-06T07:13:36;8.30;99.90
22813;DHT22;11573;51.334;3.244;2023-04-06T07:16:03;8.20;99.90
22813;DHT22;11573;51.334;3.244;2023-04-06T07:18:30;8.20;99.90
22813;DHT22;11573;51.334;3.244;2023-04-06T07:21:01;8.20;99.90
22813;DHT22;11573;51.334;3.244;2023-04-06T07:23:28;8.20;99.90
22813;DHT22;11573;51.334;3.244;2023-04-06T07:25:55;8.20;99.90
22813;DHT22;11573;51.334;3.244;2023-04-06T07:28:22;8.30;99.90
22813;DHT22;11573;51.334;3.244;2023-04-06T07:30:49;8.30;99.90
22813;DHT22;11573;51.334;3.244;2023-04-06T07:33:17;8.30;99.90
22813;DHT22;11573;51.334;3.244;2023-04-06T07:35:45;8.40;99.90
22813;DHT22;11573;51.334;3.244;2023-04-06T07:38:12;8.40;99.90
22813;DHT22;11573;51.334;3.244;2023-04-06T07:40:40;8.40;99.90
22813;DHT22;11573;51.334;3.244;2023-04-06T07:43:07;8.40;99.90
22813;DHT22;11573;51.334;3.244;2023-04-06T07:45:35;8.30;99.90
22813;DHT22;11573;51.334;3.244;2023-04-06T07:48:02;8.30;99.90
22813;DHT22;11573;51.334;3.244;2023-04-06T07:50:31;8.40;99.90
22813;DHT22;11573;51.334;3.244;2023-04-06T07:52:58;8.50;99.90
22813;DHT22;11573;51.334;3.244;2023-04-06T07:55:27;8.60;99.90
22813;DHT22;11573;51.334;3.244;2023-04-06T07:57:53;8.60;99.90
22813;DHT22;11573;51.334;3.244;2023-04-06T08:00:21;8.70;99.90
22813;DHT22;11573;51.334;3.244;2023-04-06T08:02:48;8.70;99.90
22813;DHT22;11573;51.334;3.244;2023-04-06T08:05:15;8.70;99.90
22813;DHT22;11573;51.334;3.244;2023-04-06T08:07:42;8.70;99.90
22813;DHT22;11573;51.334;3.244;2023-04-06T08:10:10;8.70;99.90
22813;DHT22;11573;51.334;3.244;2023-04-06T08:12:37;8.70;99.90
22813;DHT22;11573;51.334;3.244;2023-04-06T08:15:04;8.70;99.90
22813;DHT22;11573;51.334;3.244;2023-04-06T08:17:32;8.70;99.90
22813;DHT22;11573;51.334;3.244;2023-04-06T08:20:01;8.70;99.90
22813;DHT22;11573;51.334;3.244;2023-04-06T08:22:29;8.80;99.90
22813;DHT22;11573;51.334;3.244;2023-04-06T08:24:56;8.70;99.90
22813;DHT22;11573;51.334;3.244;2023-04-06T08:27:23;8.70;99.90
22813;DHT22;11573;51.334;3.244;2023-04-06T08:29:50;8.70;99.90
22813;DHT22;11573;51.334;3.244;2023-04-06T08:32:18;8.70;99.90
22813;DHT22;11573;51.334;3.244;2023-04-06T08:34:45;8.60;99.90
22813;DHT22;11573;51.334;3.244;2023-04-06T08:37:12;8.50;99.90
22813;DHT22;11573;51.334;3.244;2023-04-06T08:39:39;8.60;99.90
22813;DHT22;11573;51.334;3.244;2023-04-06T08:42:19;8.70;99.90
22813;DHT22;11573;51.334;3.244;2023-04-06T08:44:50;8.80;99.90
22813;DHT22;11573;51.334;3.244;2023-04-06T08:47:19;8.70;99.90
22813;DHT22;11573;51.334;3.244;2023-04-06T08:49:51;8.70;99.90
22813;DHT22;11573;51.334;3.244;2023-04-06T08:52:19;8.70;99.90
22813;DHT22;11573;51.334;3.244;2023-04-06T08:54:47;8.70;99.90
22813;DHT22;11573;51.334;3.244;2023-04-06T08:57:15;8.70;99.90
22813;DHT22;11573;51.334;3.244;2023-04-06T08:59:43;8.60;99.90
22813;DHT22;11573;51.334;3.244;2023-04-06T09:02:17;8.60;99.90
22813;DHT22;11573;51.334;3.244;2023-04-06T09:04:53;8.70;99.90
22813;DHT22;11573;51.334;3.244;2023-04-06T09:07:21;8.70;99.90
22813;DHT22;11573;51.334;3.244;2023-04-06T09:09:48;8.60;99.90
22813;DHT22;11573;51.334;3.244;2023-04-06T09:12:27;8.70;99.90
22813;DHT22;11573;51.334;3.244;2023-04-06T09:14:55;8.70;99.90
22813;DHT22;11573;51.334;3.244;2023-04-06T09:17:28;8.70;99.90
22813;DHT22;11573;51.334;3.244;2023-04-06T09:19:56;8.80;99.90
22813;DHT22;11573;51.334;3.244;2023-04-06T09:22:23;8.80;99.90
22813;DHT22;11573;51.334;3.244;2023-04-06T09:24:56;8.90;99.90
22813;DHT22;11573;51.334;3.244;2023-04-06T09:27:34;8.90;99.90
22813;DHT22;11573;51.334;3.244;2023-04-06T09:30:09;9.00;99.90
22813;DHT22;11573;51.334;3.244;2023-04-06T09:32:48;9.00;99.90
22813;DHT22;11573;51.334;3.244;2023-04-06T09:35:17;9.00;99.90
22813;DHT22;11573;51.334;3.244;2023-04-06T09:37:48;9.00;99.90
22813;DHT22;11573;51.334;3.244;2023-04-06T09:40:15;8.90;99.90
22813;DHT22;11573;51.334;3.244;2023-04-06T09:42:48;8.90;99.90
22813;DHT22;11573;51.334;3.244;2023-04-06T09:45:19;8.80;99.90
22813;DHT22;11573;51.334;3.244;2023-04-06T09:47:48;8.80;99.90
22813;DHT22;11573;51.334;3.244;2023-04-06T09:50:18;8.80;99.90
22813;DHT22;11573;51.334;3.244;2023-04-06T09:52:51;8.90;99.90
22813;DHT22;11573;51.334;3.244;2023-04-06T09:55:35;8.90;99.90
22813;DHT22;11573;51.334;3.244;2023-04-06T09:58:09;8.90;99.90
22813;DHT22;11573;51.334;3.244;2023-04-06T10:06:07;9.10;99.90
22813;DHT22;11573;51.334;3.244;2023-04-06T10:08:39;9.20;99.90
22813;DHT22;11573;51.334;3.244;2023-04-06T10:11:09;9.10;99.90
22813;DHT22;11573;51.334;3.244;2023-04-06T10:13:40;9.20;99.90
22813;DHT22;11573;51.334;3.244;2023-04-06T10:16:07;9.30;99.90
22813;DHT22;11573;51.334;3.244;2023-04-06T10:18:35;9.20;99.90
22813;DHT22;11573;51.334;3.244;2023-04-06T10:21:12;9.20;99.90
22813;DHT22;11573;51.334;3.244;2023-04-06T10:23:46;9.30;99.90
22813;DHT22;11573;51.334;3.244;2023-04-06T10:26:15;9.20;99.90
22813;DHT22;11573;51.334;3.244;2023-04-06T10:28:45;9.30;99.90
22813;DHT22;11573;51.334;3.244;2023-04-06T10:31:12;9.20;99.90
22813;DHT22;11573;51.334;3.244;2023-04-06T10:33:39;9.20;99.90
22813;DHT22;11573;51.334;3.244;2023-04-06T10:36:15;9.30;99.90
22813;DHT22;11573;51.334;3.244;2023-04-06T10:38:42;9.40;99.90
22813;DHT22;11573;51.334;3.244;2023-04-06T10:41:11;9.50;99.90
22813;DHT22;11573;51.334;3.244;2023-04-06T10:43:40;9.50;99.90
22813;DHT22;11573;51.334;3.244;2023-04-06T10:46:09;9.30;99.90
22813;DHT22;11573;51.334;3.244;2023-04-06T10:48:41;9.30;99.90
22813;DHT22;11573;51.334;3.244;2023-04-06T10:51:18;9.40;99.90
22813;DHT22;11573;51.334;3.244;2023-04-06T10:53:48;9.40;99.90
22813;DHT22;11573;51.334;3.244;2023-04-06T10:56:17;9.50;99.90
22813;DHT22;11573;51.334;3.244;2023-04-06T10:58:45;9.50;99.90
22813;DHT22;11573;51.334;3.244;2023-04-06T11:01:20;9.50;99.90
22813;DHT22;11573;51.334;3.244;2023-04-06T11:03:49;9.60;99.90
22813;DHT22;11573;51.334;3.244;2023-04-06T11:06:20;9.80;99.90
22813;DHT22;11573;51.334;3.244;2023-04-06T11:08:47;10.00;99.90
22813;DHT22;11573;51.334;3.244;2023-04-06T11:11:17;10.40;99.90
22813;DHT22;11573;51.334;3.244;2023-04-06T11:13:52;10.70;99.90
22813;DHT22;11573;51.334;3.244;2023-04-06T11:16:28;10.60;99.90
22813;DHT22;11573;51.334;3.244;2023-04-06T11:18:58;10.60;99.90
22813;DHT22;11573;51.334;3.244;2023-04-06T11:24:05;10.40;99.90
22813;DHT22;11573;51.334;3.244;2023-04-06T11:26:44;10.50;99.90
22813;DHT22;11573;51.334;3.244;2023-04-06T11:29:16;10.50;99.90
22813;DHT22;11573;51.334;3.244;2023-04-06T11:32:01;10.70;99.90
22813;DHT22;11573;51.334;3.244;2023-04-06T11:34:30;10.80;99.90
22813;DHT22;11573;51.334;3.244;2023-04-06T11:36:59;11.00;99.90
22813;DHT22;11573;51.334;3.244;2023-04-06T11:39:28;11.10;99.90
22813;DHT22;11573;51.334;3.244;2023-04-06T11:41:58;11.40;99.90
22813;DHT22;11573;51.334;3.244;2023-04-06T11:44:31;11.40;99.90
22813;DHT22;11573;51.334;3.244;2023-04-06T11:46:58;11.30;99.90
22813;DHT22;11573;51.334;3.244;2023-04-06T11:49:30;11.40;99.90
22813;DHT22;11573;51.334;3.244;2023-04-06T11:51:58;11.40;99.90
22813;DHT22;11573;51.334;3.244;2023-04-06T11:54:36;11.40;99.90
22813;DHT22;11573;51.334;3.244;2023-04-06T11:57:05;11.40;99.90
22813;DHT22;11573;51.334;3.244;2023-04-06T11:59:32;11.30;99.90
22813;DHT22;11573;51.334;3.244;2023-04-06T12:02:02;11.20;99.90
22813;DHT22;11573;51.334;3.244;2023-04-06T12:04:29;11.20;99.90
22813;DHT22;11573;51.334;3.244;2023-04-06T12:06:57;11.30;99.90
22813;DHT22;11573;51.334;3.244;2023-04-06T12:09:24;11.40;99.90
22813;DHT22;11573;51.334;3.244;2023-04-06T12:11:51;11.40;99.90
22813;DHT22;11573;51.334;3.244;2023-04-06T12:14:18;11.40;99.90
22813;DHT22;11573;51.334;3.244;2023-04-06T12:16:45;11.50;99.90
22813;DHT22;11573;51.334;3.244;2023-04-06T12:19:12;11.50;99.90
22813;DHT22;11573;51.334;3.244;2023-04-06T12:21:39;11.50;99.90
22813;DHT22;11573;51.334;3.244;2023-04-06T12:24:07;11.30;99.90
22813;DHT22;11573;51.334;3.244;2023-04-06T12:26:35;11.30;99.90
22813;DHT22;11573;51.334;3.244;2023-04-06T12:29:03;11.40;99.90
22813;DHT22;11573;51.334;3.244;2023-04-06T12:31:37;11.50;99.90
22813;DHT22;11573;51.334;3.244;2023-04-06T12:34:12;11.40;99.90
22813;DHT22;11573;51.334;3.244;2023-04-06T12:36:39;11.50;99.90
22813;DHT22;11573;51.334;3.244;2023-04-06T12:39:06;11.40;99.90
22813;DHT22;11573;51.334;3.244;2023-04-06T12:41:33;11.40;99.90
22813;DHT22;11573;51.334;3.244;2023-04-06T12:44:00;11.40;99.90
22813;DHT22;11573;51.334;3.244;2023-04-06T12:46:29;11.30;99.90
22813;DHT22;11573;51.334;3.244;2023-04-06T12:48:59;11.50;99.90
22813;DHT22;11573;51.334;3.244;2023-04-06T12:51:29;11.60;99.90
22813;DHT22;11573;51.334;3.244;2023-04-06T12:53:57;11.60;99.90
22813;DHT22;11573;51.334;3.244;2023-04-06T12:56:25;11.60;99.90
22813;DHT22;11573;51.334;3.244;2023-04-06T12:58:52;11.50;99.90
22813;DHT22;11573;51.334;3.244;2023-04-06T13:01:19;11.50;99.90
22813;DHT22;11573;51.334;3.244;2023-04-06T13:03:47;11.50;99.90
22813;DHT22;11573;51.334;3.244;2023-04-06T13:06:14;11.60;99.90
22813;DHT22;11573;51.334;3.244;2023-04-06T13:08:42;11.70;99.90
22813;DHT22;11573;51.334;3.244;2023-04-06T13:11:09;11.70;99.90
22813;DHT22;11573;51.334;3.244;2023-04-06T13:13:37;11.80;99.90
22813;DHT22;11573;51.334;3.244;2023-04-06T13:16:07;11.90;99.90
22813;DHT22;11573;51.334;3.244;2023-04-06T13:18:35;12.00;99.90
22813;DHT22;11573;51.334;3.244;2023-04-06T13:21:04;12.10;99.90
22813;DHT22;11573;51.334;3.244;2023-04-06T13:23:31;12.30;99.90
22813;DHT22;11573;51.334;3.244;2023-04-06T13:26:03;12.50;99.90
22813;DHT22;11573;51.334;3.244;2023-04-06T13:28:31;12.60;99.90
22813;DHT22;11573;51.334;3.244;2023-04-06T13:30:59;12.40;99.90
22813;DHT22;11573;51.334;3.244;2023-04-06T13:33:30;12.50;99.90
22813;DHT22;11573;51.334;3.244;2023-04-06T13:35:57;12.50;99.90
22813;DHT22;11573;51.334;3.244;2023-04-06T13:38:25;12.40;99.90
22813;DHT22;11573;51.334;3.244;2023-04-06T13:40:52;12.30;99.90
22813;DHT22;11573;51.334;3.244;2023-04-06T13:43:19;12.30;99.90
22813;DHT22;11573;51.334;3.244;2023-04-06T13:45:52;12.40;99.90
22813;DHT22;11573;51.334;3.244;2023-04-06T13:48:20;12.40;99.90
22813;DHT22;11573;51.334;3.244;2023-04-06T13:50:47;12.40;99.90
22813;DHT22;11573;51.334;3.244;2023-04-06T13:53:15;12.30;99.90
22813;DHT22;11573;51.334;3.244;2023-04-06T13:55:42;12.10;99.90
22813;DHT22;11573;51.334;3.244;2023-04-06T13:58:09;11.90;99.90
22813;DHT22;11573;51.334;3.244;2023-04-06T14:00:36;11.70;99.90
22813;DHT22;11573;51.334;3.244;2023-04-06T14:03:05;11.50;99.90
22813;DHT22;11573;51.334;3.244;2023-04-06T14:05:33;11.40;99.90
22813;DHT22;11573;51.334;3.244;2023-04-06T14:08:01;11.20;99.90
22813;DHT22;11573;51.334;3.244;2023-04-06T14:10:28;11.00;99.90
22813;DHT22;11573;51.334;3.244;2023-04-06T14:12:55;10.90;99.90
22813;DHT22;11573;51.334;3.244;2023-04-06T14:15:22;10.80;99.90
22813;DHT22;11573;51.334;3.244;2023-04-06T14:17:50;10.70;99.90
22813;DHT22;11573;51.334;3.244;2023-04-06T14:20:18;10.70;99.90
22813;DHT22;11573;51.334;3.244;2023-04-06T14:22:46;10.70;99.90
22813;DHT22;11573;51.334;3.244;2023-04-06T14:25:13;10.70;99.90
22813;DHT22;11573;51.334;3.244;2023-04-06T14:27:40;10.80;99.90
22813;DHT22;11573;51.334;3.244;2023-04-06T14:30:08;10.80;99.90
22813;DHT22;11573;51.334;3.244;2023-04-06T14:32:35;10.80;99.90
22813;DHT22;11573;51.334;3.244;2023-04-06T14:35:07;10.80;99.90
22813;DHT22;11573;51.334;3.244;2023-04-06T14:37:34;10.80;99.90
22813;DHT22;11573;51.334;3.244;2023-04-06T14:40:02;10.70;99.90
22813;DHT22;11573;51.334;3.244;2023-04-06T14:42:29;10.70;99.90
22813;DHT22;11573;51.334;3.244;2023-04-06T14:44:56;10.70;99.90
22813;DHT22;11573;51.334;3.244;2023-04-06T14:47:23;10.50;99.90
22813;DHT22;11573;51.334;3.244;2023-04-06T14:49:51;10.50;99.90
22813;DHT22;11573;51.334;3.244;2023-04-06T14:52:19;10.50;99.90
22813;DHT22;11573;51.334;3.244;2023-04-06T14:54:46;10.50;99.90
22813;DHT22;11573;51.334;3.244;2023-04-06T14:57:13;10.40;99.90
22813;DHT22;11573;51.334;3.244;2023-04-06T14:59:40;10.40;99.90
22813;DHT22;11573;51.334;3.244;2023-04-06T15:02:07;10.40;99.90
22813;DHT22;11573;51.334;3.244;2023-04-06T15:04:34;10.50;99.90
22813;DHT22;11573;51.334;3.244;2023-04-06T15:07:03;10.40;99.90
22813;DHT22;11573;51.334;3.244;2023-04-06T15:09:29;10.50;99.90
22813;DHT22;11573;51.334;3.244;2023-04-06T15:11:57;10.50;99.90
22813;DHT22;11573;51.334;3.244;2023-04-06T15:14:24;10.50;99.90
22813;DHT22;11573;51.334;3.244;2023-04-06T15:16:51;10.50;99.90
22813;DHT22;11573;51.334;3.244;2023-04-06T15:19:18;10.40;99.90
22813;DHT22;11573;51.334;3.244;2023-04-06T15:21:45;10.40;99.90
22813;DHT22;11573;51.334;3.244;2023-04-06T15:24:12;10.40;99.90
22813;DHT22;11573;51.334;3.244;2023-04-06T15:26:39;10.40;99.90
22813;DHT22;11573;51.334;3.244;2023-04-06T15:29:06;10.40;99.90
22813;DHT22;11573;51.334;3.244;2023-04-06T15:31:33;10.40;99.90
22813;DHT22;11573;51.334;3.244;2023-04-06T15:34:04;10.40;99.90
22813;DHT22;11573;51.334;3.244;2023-04-06T15:36:34;10.50;99.90
22813;DHT22;11573;51.334;3.244;2023-04-06T15:39:02;10.60;99.90
22813;DHT22;11573;51.334;3.244;2023-04-06T15:41:30;10.60;99.90
22813;DHT22;11573;51.334;3.244;2023-04-06T15:43:57;10.60;99.90
22813;DHT22;11573;51.334;3.244;2023-04-06T15:46:24;10.50;99.90
22813;DHT22;11573;51.334;3.244;2023-04-06T15:48:54;10.60;99.90
22813;DHT22;11573;51.334;3.244;2023-04-06T15:51:21;10.60;99.90
22813;DHT22;11573;51.334;3.244;2023-04-06T15:53:49;10.60;99.90
22813;DHT22;11573;51.334;3.244;2023-04-06T15:56:16;10.60;99.90
22813;DHT22;11573;51.334;3.244;2023-04-06T15:58:43;10.70;99.90
22813;DHT22;11573;51.334;3.244;2023-04-06T16:01:15;10.80;99.90
22813;DHT22;11573;51.334;3.244;2023-04-06T16:03:43;10.80;99.90
22813;DHT22;11573;51.334;3.244;2023-04-06T16:06:11;10.80;99.90